Time;durP1;ratioP1;P1;durP2;ratioP2;P2;SDS_P1;SDS_P2;PMS_P1;PMS_P2;Temp;Humidity;BMP_temperature;BMP_pressure;BME280_temperature;BME280_humidity;BME280_pressure;Samples;Min_cycle;Max_cycle;Signal;HPM_P1;HPM_P2
2023/08/31 00:02:10;;;;;;;9.40;3.00;;;;;;;25.75;45.47;99730.77;108017;1288;21998;-60
2023/08/31 00:04:36;;;;;;;7.70;2.80;;;;;;;25.80;45.45;99736.08;108046;1287;21997;-68
2023/08/31 00:07:02;;;;;;;12.20;3.00;;;;;;;25.84;45.56;99740.63;108022;1288;22000;-60
2023/08/31 00:09:29;;;;;;;6.90;3.00;;;;;;;25.87;45.65;99743.80;108016;1288;22008;-69
2023/08/31 00:11:56;;;;;;;9.30;2.50;;;;;;;25.89;45.73;99750.05;108026;1288;21990;-69
2023/08/31 00:14:22;;;;;;;11.60;3.70;;;;;;;25.91;45.58;99749.68;108004;1288;22529;-70
2023/08/31 00:16:48;;;;;;;10.90;2.90;;;;;;;25.92;45.65;99752.88;108094;1282;22019;-70
2023/08/31 00:19:14;;;;;;;9.20;3.00;;;;;;;25.91;45.63;99757.60;107954;1289;23139;-59
2023/08/31 00:21:40;;;;;;;9.40;2.90;;;;;;;25.85;45.79;99764.38;107831;1289;21998;-59
2023/08/31 00:24:07;;;;;;;7.80;3.30;;;;;;;25.75;45.83;99773.18;107864;1284;21994;-60
2023/08/31 00:26:33;;;;;;;9.60;3.00;;;;;;;25.63;46.18;99779.05;107878;1289;21962;-66
2023/08/31 00:28:59;;;;;;;7.70;3.10;;;;;;;25.53;46.63;99780.95;107866;1284;22016;-70
2023/08/31 00:31:24;;;;;;;9.60;3.30;;;;;;;25.44;46.81;99786.03;107850;1289;21998;-70
2023/08/31 00:33:50;;;;;;;6.70;2.80;;;;;;;25.40;47.03;99785.98;107843;1289;22010;-60
2023/08/31 00:36:18;;;;;;;11.90;3.20;;;;;;;25.44;47.05;99789.28;107849;1289;21989;-70
2023/08/31 00:38:43;;;;;;;10.00;2.60;;;;;;;25.49;47.27;99787.38;107853;1284;21996;-71
2023/08/31 00:41:09;;;;;;;13.30;3.40;;;;;;;25.55;47.40;99784.36;107870;1289;21997;-71
2023/08/31 00:43:34;;;;;;;8.80;3.00;;;;;;;25.62;47.32;99784.13;107828;1289;21999;-60
2023/08/31 00:46:00;;;;;;;7.90;2.60;;;;;;;25.67;47.07;99787.30;107845;1289;22002;-60
2023/08/31 00:48:26;;;;;;;9.00;2.80;;;;;;;25.70;47.25;99786.59;107853;1289;22055;-71
2023/08/31 00:50:52;;;;;;;10.30;2.80;;;;;;;25.71;47.15;99785.91;107860;1289;22470;-60
2023/08/31 00:53:18;;;;;;;15.10;3.80;;;;;;;25.71;47.14;99785.95;107737;1289;21995;-60
2023/08/31 00:55:47;;;;;;;10.40;3.00;;;;;;;25.68;47.13;99789.27;107792;1289;22424;-61
2023/08/31 00:58:13;;;;;;;6.80;3.00;;;;;;;25.56;47.05;99795.43;107830;1289;22003;-70
2023/08/31 01:01:03;;;;;;;8.70;3.20;;;;;;;25.44;47.07;99800.16;107854;1289;22191;-70
2023/08/31 01:03:47;;;;;;;11.00;3.10;;;;;;;25.34;47.55;99806.27;107837;1289;21981;-69
2023/08/31 01:06:17;;;;;;;7.20;2.70;;;;;;;25.27;48.13;99809.89;107824;1284;21994;-70
2023/08/31 01:08:57;;;;;;;9.40;3.80;;;;;;;25.19;48.49;99817.29;107869;1289;21993;-60
2023/08/31 01:12:29;;;;;;;10.80;3.20;;;;;;;25.15;48.78;99815.21;107859;1286;21989;-60
2023/08/31 01:15:07;;;;;;;5.50;2.50;;;;;;;25.16;49.17;99812.21;107313;1297;24143;-60
2023/08/31 01:17:33;;;;;;;5.70;2.90;;;;;;;25.19;49.37;99814.27;107376;1294;24327;-60
2023/08/31 01:19:59;;;;;;;7.50;2.90;;;;;;;25.24;49.56;99820.89;107538;1289;22000;-60
2023/08/31 01:22:43;;;;;;;6.20;3.20;;;;;;;25.26;49.71;99825.92;107836;1289;21995;-60
2023/08/31 01:25:09;;;;;;;6.90;2.70;;;;;;;25.28;49.66;99823.95;107874;1289;22027;-70
2023/08/31 01:27:35;;;;;;;12.20;3.30;;;;;;;25.33;49.77;99820.73;107848;1289;22009;-61
2023/08/31 01:30:03;;;;;;;4.90;2.90;;;;;;;25.36;49.76;99821.64;107842;1289;21991;-69
2023/08/31 01:32:28;;;;;;;8.00;2.70;;;;;;;25.37;49.45;99819.45;107826;1287;21977;-61
2023/08/31 01:34:54;;;;;;;5.70;2.90;;;;;;;25.35;49.20;99812.80;107826;1289;21998;-60
2023/08/31 01:37:40;;;;;;;7.10;2.60;;;;;;;25.32;49.08;99806.40;107837;1287;21990;-61
2023/08/31 01:40:14;;;;;;;6.70;3.10;;;;;;;25.31;49.09;99801.61;107867;1289;22000;-71
2023/08/31 01:42:43;;;;;;;7.50;2.40;;;;;;;25.33;49.19;99794.08;107918;1289;21993;-71
2023/08/31 01:45:10;;;;;;;6.20;2.70;;;;;;;25.34;49.32;99789.90;107728;1289;22472;-71
2023/08/31 01:47:36;;;;;;;7.30;2.80;;;;;;;25.33;49.16;99789.77;107832;1289;22034;-71
2023/08/31 01:50:02;;;;;;;28.80;4.10;;;;;;;25.31;49.36;99790.46;107659;1289;21997;-60
2023/08/31 01:52:27;;;;;;;11.10;3.10;;;;;;;25.29;49.21;99791.04;107830;1289;21993;-71
2023/08/31 01:54:53;;;;;;;8.80;2.90;;;;;;;25.26;49.18;99786.95;107823;1287;21993;-71
2023/08/31 01:57:18;;;;;;;17.40;4.50;;;;;;;25.22;49.41;99778.80;107861;1283;21995;-64
2023/08/31 01:59:44;;;;;;;12.20;3.30;;;;;;;25.19;49.77;99777.48;107911;1289;22001;-59
2023/08/31 02:02:10;;;;;;;13.70;3.10;;;;;;;25.17;49.96;99775.83;107698;1289;22051;-70
2023/08/31 02:04:35;;;;;;;10.80;3.00;;;;;;;25.17;49.85;99777.33;107848;1289;22486;-70
2023/08/31 02:07:01;;;;;;;15.40;3.70;;;;;;;25.15;49.89;99777.46;107977;1288;24332;-70
2023/08/31 02:09:27;;;;;;;9.80;2.60;;;;;;;25.15;50.18;99777.29;108004;1288;21994;-58
2023/08/31 02:11:52;;;;;;;15.90;4.00;;;;;;;25.17;50.52;99777.48;108040;1276;21992;-59
2023/08/31 02:14:18;;;;;;;12.20;3.20;;;;;;;25.20;50.36;99765.93;108052;1287;22000;-59
2023/08/31 02:16:44;;;;;;;7.70;2.50;;;;;;;25.23;49.93;99756.69;108013;1283;22456;-60
2023/08/31 02:19:10;;;;;;;8.30;2.90;;;;;;;25.23;49.67;99750.92;108047;1288;23041;-71
2023/08/31 02:21:35;;;;;;;9.20;2.80;;;;;;;25.20;49.43;99742.94;107814;1289;22050;-59
2023/08/31 02:24:01;;;;;;;12.20;2.90;;;;;;;25.15;49.25;99741.01;107810;1289;21996;-59
2023/08/31 02:26:26;;;;;;;10.70;3.00;;;;;;;25.09;49.26;99738.11;107694;1286;23871;-59
2023/08/31 02:28:52;;;;;;;13.80;3.00;;;;;;;25.01;49.02;99740.53;108023;1280;21999;-60
2023/08/31 02:31:18;;;;;;;12.50;3.20;;;;;;;24.92;49.09;99745.57;108039;1287;21992;-72
2023/08/31 02:33:46;;;;;;;10.20;2.80;;;;;;;24.84;49.08;99761.00;107749;1286;391597;-72
2023/08/31 02:36:12;;;;;;;8.50;2.80;;;;;;;24.73;49.01;99769.23;108072;1284;21988;-72
2023/08/31 02:38:37;;;;;;;13.20;3.60;;;;;;;24.68;49.35;99771.23;107991;1288;21989;-60
2023/08/31 02:41:03;;;;;;;12.30;2.90;;;;;;;24.69;49.65;99769.02;108010;1288;23136;-73
2023/08/31 02:43:30;;;;;;;9.60;3.60;;;;;;;24.69;49.94;99769.50;108000;1288;21991;-60
2023/08/31 02:46:00;;;;;;;11.10;3.40;;;;;;;24.70;49.94;99768.17;108024;1288;24152;-58
2023/08/31 02:48:27;;;;;;;11.20;2.50;;;;;;;24.68;49.84;99765.80;108037;1287;21995;-70
2023/08/31 02:50:53;;;;;;;8.20;2.80;;;;;;;24.66;49.73;99766.86;107972;1284;21997;-70
2023/08/31 02:53:19;;;;;;;10.00;4.00;;;;;;;24.64;49.93;99767.71;108019;1288;22000;-73
2023/08/31 02:55:45;;;;;;;12.40;3.20;;;;;;;24.62;49.99;99770.97;107887;1288;22051;-73
2023/08/31 02:58:11;;;;;;;19.40;3.60;;;;;;;24.60;50.12;99768.06;107964;1288;22458;-73
2023/08/31 03:00:39;;;;;;;15.20;4.10;;;;;;;24.59;50.02;99770.11;107983;1284;21994;-73
2023/08/31 03:03:05;;;;;;;8.80;2.90;;;;;;;24.59;50.08;99771.73;107994;1286;21998;-72
2023/08/31 03:05:31;;;;;;;10.70;2.90;;;;;;;24.59;50.26;99769.98;108001;1287;23773;-72
2023/08/31 03:07:57;;;;;;;14.70;3.20;;;;;;;24.60;50.61;99767.73;107952;1288;21995;-59
2023/08/31 03:10:22;;;;;;;9.80;2.80;;;;;;;24.64;50.74;99763.12;107965;1280;21999;-73
2023/08/31 03:12:48;;;;;;;8.80;3.20;;;;;;;24.70;50.75;99759.80;108035;1288;22001;-60
2023/08/31 03:15:13;;;;;;;21.30;3.40;;;;;;;24.74;51.06;99756.60;108059;1283;22010;-60
2023/08/31 03:17:39;;;;;;;8.70;2.80;;;;;;;24.76;50.93;99760.38;108008;1288;22046;-73
2023/08/31 03:20:06;;;;;;;14.10;3.60;;;;;;;24.77;50.95;99765.66;108016;1288;23683;-60
2023/08/31 03:22:32;;;;;;;14.60;3.40;;;;;;;24.75;51.02;99767.73;108061;1286;21999;-73
2023/08/31 03:24:57;;;;;;;14.00;3.30;;;;;;;24.72;51.13;99765.38;108001;1283;22003;-72
2023/08/31 03:27:23;;;;;;;12.70;3.20;;;;;;;24.64;51.34;99760.61;107999;1287;21991;-73
2023/08/31 03:29:48;;;;;;;11.60;3.40;;;;;;;24.59;51.62;99761.93;108044;1283;22086;-73
2023/08/31 03:32:14;;;;;;;12.60;3.30;;;;;;;24.58;51.97;99759.84;107996;1279;22083;-73
2023/08/31 03:34:39;;;;;;;9.60;3.20;;;;;;;24.59;52.05;99761.88;107996;1288;24361;-73
2023/08/31 03:37:05;;;;;;;10.10;3.20;;;;;;;24.61;52.48;99763.34;107979;1288;23703;-60
2023/08/31 03:39:31;;;;;;;15.80;3.70;;;;;;;24.67;52.69;99763.59;107952;1283;21995;-73
2023/08/31 03:41:57;;;;;;;17.00;3.60;;;;;;;24.77;52.97;99764.17;108028;1288;21993;-72
2023/08/31 03:44:22;;;;;;;9.90;3.20;;;;;;;24.88;53.36;99767.84;108017;1279;22015;-61
2023/08/31 03:46:48;;;;;;;15.10;3.70;;;;;;;24.95;53.13;99767.45;107928;1283;21999;-60
2023/08/31 03:49:13;;;;;;;10.90;3.40;;;;;;;25.03;53.18;99765.67;107844;1289;21994;-71
2023/08/31 03:51:39;;;;;;;9.30;3.10;;;;;;;25.13;53.44;99760.35;107839;1289;21995;-69
2023/08/31 03:54:05;;;;;;;15.60;3.60;;;;;;;25.24;53.56;99761.31;107847;1284;21995;-71
2023/08/31 03:56:31;;;;;;;12.50;3.20;;;;;;;25.34;53.44;99764.74;107900;1284;22172;-71
2023/08/31 03:58:57;;;;;;;14.40;3.70;;;;;;;25.46;53.86;99765.56;107841;1284;22002;-60
2023/08/31 04:01:23;;;;;;;14.30;3.60;;;;;;;25.56;53.92;99769.77;107919;1289;22003;-60
2023/08/31 04:03:48;;;;;;;8.80;3.20;;;;;;;25.65;54.13;99765.39;107840;1287;22003;-60
2023/08/31 04:06:14;;;;;;;14.10;4.00;;;;;;;25.73;53.86;99764.89;107825;1287;21987;-62
2023/08/31 04:08:40;;;;;;;15.50;3.70;;;;;;;25.79;53.78;99755.92;107862;1282;21992;-60
2023/08/31 04:11:05;;;;;;;12.20;3.00;;;;;;;25.86;53.71;99754.48;107852;1289;22131;-60
2023/08/31 04:13:31;;;;;;;11.10;4.10;;;;;;;25.93;53.94;99764.31;107832;1288;21992;-66
2023/08/31 04:15:56;;;;;;;13.80;3.60;;;;;;;25.97;54.29;99774.02;107843;1289;22110;-72
2023/08/31 04:18:22;;;;;;;12.00;3.40;;;;;;;26.02;54.76;99788.29;107910;1286;22061;-58
2023/08/31 04:20:52;;;;;;;14.30;3.70;;;;;;;26.10;55.51;99798.92;107833;1284;22004;-58
2023/08/31 04:23:18;;;;;;;36.30;4.40;;;;;;;26.20;56.41;99807.80;107855;1283;22003;-69
2023/08/31 04:25:45;;;;;;;41.40;6.60;;;;;;;26.33;56.27;99811.41;107900;1289;21993;-68
2023/08/31 04:28:10;;;;;;;44.80;7.00;;;;;;;26.48;56.87;99813.86;107872;1283;23259;-67
2023/08/31 04:30:36;;;;;;;34.60;5.80;;;;;;;26.63;57.54;99822.95;107850;1283;21995;-69
2023/08/31 04:33:04;;;;;;;27.60;4.70;;;;;;;26.79;57.28;99837.38;107855;1286;21996;-59
2023/08/31 04:35:31;;;;;;;24.10;4.50;;;;;;;26.95;59.13;99840.34;107944;1289;21995;-70
2023/08/31 04:37:57;;;;;;;20.20;3.90;;;;;;;27.11;58.36;99843.71;107936;1289;22011;-58
2023/08/31 04:40:22;;;;;;;14.60;3.60;;;;;;;27.26;58.57;99849.45;107798;1280;22004;-61
2023/08/31 04:42:48;;;;;;;11.00;4.20;;;;;;;27.40;58.28;99846.19;107814;1286;22086;-58
2023/08/31 04:45:14;;;;;;;14.80;3.70;;;;;;;27.52;57.52;99847.59;107842;1281;22084;-58
2023/08/31 04:47:39;;;;;;;18.20;3.70;;;;;;;27.65;57.61;99848.99;107803;1289;22018;-68
2023/08/31 04:50:06;;;;;;;14.30;3.50;;;;;;;27.74;58.55;99853.91;107665;1286;21997;-68
2023/08/31 04:52:32;;;;;;;9.30;3.50;;;;;;;27.82;58.00;99856.38;107916;1286;23650;-59
2023/08/31 04:54:58;;;;;;;16.20;4.10;;;;;;;27.91;56.58;99848.68;107954;1288;21991;-69
2023/08/31 04:57:24;;;;;;;16.90;3.30;;;;;;;28.03;56.31;99838.58;107977;1288;22000;-61
2023/08/31 04:59:49;;;;;;;12.80;4.30;;;;;;;28.14;55.74;99832.86;108012;1286;22000;-70
2023/08/31 05:02:15;;;;;;;17.90;3.50;;;;;;;28.25;55.45;99828.45;108012;1288;21989;-59
2023/08/31 05:04:40;;;;;;;22.50;4.60;;;;;;;28.35;54.46;99830.38;108022;1286;22003;-63
2023/08/31 05:07:06;;;;;;;27.80;5.70;;;;;;;28.49;53.75;99836.02;108029;1288;22006;-67
2023/08/31 05:09:34;;;;;;;12.00;3.40;;;;;;;28.66;53.40;99844.29;107996;1280;21996;-67
2023/08/31 05:12:03;;;;;;;10.20;3.80;;;;;;;28.82;53.14;99841.95;108079;1288;22006;-57
2023/08/31 05:14:29;;;;;;;17.80;3.40;;;;;;;28.94;53.27;99834.41;108046;1288;21992;-67
2023/08/31 05:16:55;;;;;;;13.50;5.00;;;;;;;29.06;52.94;99829.49;107995;1286;22030;-57
2023/08/31 05:19:21;;;;;;;22.80;4.50;;;;;;;29.24;52.84;99834.61;108057;1288;21997;-58
2023/08/31 05:21:47;;;;;;;18.40;3.70;;;;;;;29.42;52.48;99836.38;108039;1288;21993;-68
2023/08/31 05:24:12;;;;;;;18.50;3.80;;;;;;;29.60;52.22;99838.39;107962;1287;21995;-68
2023/08/31 05:26:39;;;;;;;11.60;3.60;;;;;;;29.73;52.30;99841.10;108010;1288;21995;-59
2023/08/31 05:29:05;;;;;;;11.50;3.10;;;;;;;29.82;52.48;99834.52;108071;1288;22010;-69
2023/08/31 05:31:31;;;;;;;9.60;3.30;;;;;;;29.96;52.58;99817.58;108077;1288;21999;-59
2023/08/31 05:33:56;;;;;;;10.20;3.30;;;;;;;30.15;52.50;99815.86;108032;1288;22004;-68
2023/08/31 05:36:22;;;;;;;8.80;3.40;;;;;;;30.30;51.90;99825.88;108081;1284;22004;-68
2023/08/31 05:38:48;;;;;;;13.40;3.10;;;;;;;30.42;51.80;99834.54;107989;1288;23800;-69
2023/08/31 05:41:14;;;;;;;12.70;3.30;;;;;;;30.56;51.52;99835.09;108003;1287;21993;-61
2023/08/31 05:43:40;;;;;;;14.40;3.40;;;;;;;30.71;51.35;99830.32;108103;1288;21991;-59
2023/08/31 05:46:07;;;;;;;11.40;3.30;;;;;;;30.86;51.23;99829.05;108026;1288;21993;-69
2023/08/31 05:48:33;;;;;;;15.30;4.30;;;;;;;31.04;51.28;99821.58;108090;1288;21993;-70
2023/08/31 05:50:58;;;;;;;9.40;3.30;;;;;;;31.18;50.86;99812.64;107983;1288;21995;-68
2023/08/31 05:53:24;;;;;;;12.50;3.50;;;;;;;31.35;50.94;99809.17;108015;1286;21994;-60
2023/08/31 05:55:49;;;;;;;16.80;3.00;;;;;;;31.51;50.27;99814.45;108080;1281;22002;-62
2023/08/31 05:58:15;;;;;;;12.40;3.00;;;;;;;31.65;50.25;99821.42;108121;1283;21999;-69
2023/08/31 06:00:41;;;;;;;9.00;3.00;;;;;;;31.90;50.20;99824.96;108165;1286;23622;-70
2023/08/31 06:03:07;;;;;;;13.70;3.40;;;;;;;32.14;49.81;99832.38;107954;1288;23772;-59
2023/08/31 06:05:33;;;;;;;9.50;2.80;;;;;;;32.30;48.71;99854.38;108031;1283;21992;-69
2023/08/31 06:07:58;;;;;;;24.90;4.30;;;;;;;32.37;48.02;99869.08;108003;1288;21998;-70
2023/08/31 06:10:24;;;;;;;16.80;4.00;;;;;;;32.45;47.69;99867.97;107983;1288;21990;-58
2023/08/31 06:12:50;;;;;;;14.60;3.40;;;;;;;32.64;47.63;99864.73;107845;1289;21993;-58
2023/08/31 06:15:17;;;;;;;9.50;2.70;;;;;;;32.77;47.13;99867.59;107994;1288;21997;-58
2023/08/31 06:17:43;;;;;;;16.20;3.20;;;;;;;32.87;46.79;99871.29;108039;1288;21995;-71
2023/08/31 06:20:09;;;;;;;18.90;3.60;;;;;;;33.00;46.73;99870.64;108017;1283;21990;-69
2023/08/31 06:22:35;;;;;;;13.60;3.60;;;;;;;33.13;46.02;99869.89;108072;1283;22458;-70
2023/08/31 06:25:01;;;;;;;7.30;2.70;;;;;;;33.09;45.49;99865.97;108009;1288;21994;-71
2023/08/31 06:27:26;;;;;;;6.00;2.50;;;;;;;33.11;45.62;99863.22;108008;1288;22162;-69
2023/08/31 06:29:55;;;;;;;8.60;2.60;;;;;;;33.17;45.28;99863.29;108000;1288;23643;-69
2023/08/31 06:32:21;;;;;;;9.50;2.90;;;;;;;33.22;45.54;99866.26;107925;1283;22055;-69
2023/08/31 06:34:47;;;;;;;16.60;3.10;;;;;;;33.39;45.61;99867.63;107937;1288;21973;-70
2023/08/31 06:37:12;;;;;;;7.80;2.70;;;;;;;33.56;45.45;99868.08;107977;1287;21999;-69
2023/08/31 06:39:38;;;;;;;11.20;2.70;;;;;;;33.74;45.67;99865.24;108033;1288;22002;-68
2023/08/31 06:42:04;;;;;;;11.70;2.60;;;;;;;33.95;45.37;99864.73;107986;1279;21997;-59
2023/08/31 06:44:30;;;;;;;7.70;2.80;;;;;;;34.13;45.16;99868.23;107997;1288;21997;-59
2023/08/31 06:46:56;;;;;;;10.10;2.50;;;;;;;34.30;44.77;99868.79;108018;1288;21993;-70
2023/08/31 06:49:22;;;;;;;8.70;2.80;;;;;;;34.43;44.33;99869.91;108023;1288;22006;-59
2023/08/31 06:51:48;;;;;;;6.50;2.40;;;;;;;34.47;43.39;99872.58;108021;1288;21984;-69
2023/08/31 06:54:14;;;;;;;9.30;2.60;;;;;;;34.41;43.27;99875.84;108001;1288;24330;-68
2023/08/31 06:56:41;;;;;;;7.00;2.50;;;;;;;34.45;43.44;99886.40;108007;1288;22251;-68
2023/08/31 06:59:06;;;;;;;13.70;3.10;;;;;;;34.59;43.35;99888.19;107976;1288;21995;-69
2023/08/31 07:01:35;;;;;;;8.60;2.90;;;;;;;34.79;43.46;99894.52;108039;1283;23647;-71
2023/08/31 07:04:00;;;;;;;9.20;2.60;;;;;;;35.04;43.38;99896.44;108548;1286;21992;-60
2023/08/31 07:06:26;;;;;;;8.00;2.60;;;;;;;35.25;43.19;99895.47;108057;1288;21990;-71
2023/08/31 07:08:51;;;;;;;8.10;2.20;;;;;;;35.44;42.60;99896.00;107973;1286;23615;-61
2023/08/31 07:11:18;;;;;;;7.90;2.60;;;;;;;35.61;42.21;99899.31;108013;1283;22003;-61
2023/08/31 07:13:43;;;;;;;5.90;2.50;;;;;;;35.78;41.96;99901.39;108011;1288;21985;-61
2023/08/31 07:16:09;;;;;;;10.00;2.80;;;;;;;35.94;42.29;99900.07;107999;1283;21994;-72
2023/08/31 07:18:36;;;;;;;6.20;2.20;;;;;;;36.17;41.96;99895.18;107981;1288;21998;-72
2023/08/31 07:21:01;;;;;;;7.90;2.40;;;;;;;36.26;41.46;99899.37;108032;1288;21993;-73
2023/08/31 07:23:27;;;;;;;12.80;2.70;;;;;;;36.32;40.91;99900.94;108026;1280;21993;-70
2023/08/31 07:25:58;;;;;;;6.90;2.20;;;;;;;36.37;40.19;99903.04;108059;1288;21998;-72
2023/08/31 07:28:23;;;;;;;8.00;2.40;;;;;;;36.27;39.99;99903.72;108015;1284;23060;-59
2023/08/31 07:30:49;;;;;;;4.90;2.10;;;;;;;36.13;39.73;99906.10;107986;1288;21995;-69
2023/08/31 07:33:14;;;;;;;5.50;2.40;;;;;;;36.02;38.82;99908.95;107922;1279;21999;-60
2023/08/31 07:35:40;;;;;;;6.90;2.30;;;;;;;36.00;39.74;99910.24;107952;1288;21995;-60
2023/08/31 07:38:06;;;;;;;7.80;2.30;;;;;;;36.14;39.61;99914.02;107956;1283;21988;-64
2023/08/31 07:40:31;;;;;;;7.70;2.70;;;;;;;36.15;39.28;99911.31;107937;1288;22000;-70
2023/08/31 07:42:57;;;;;;;16.60;2.50;;;;;;;36.15;39.65;99913.58;107936;1288;22031;-60
2023/08/31 07:45:22;;;;;;;9.40;2.20;;;;;;;36.36;39.59;99910.91;108067;1283;22003;-60
2023/08/31 07:47:48;;;;;;;5.20;2.30;;;;;;;36.51;38.35;99911.36;107977;1286;21949;-61
2023/08/31 07:50:14;;;;;;;11.40;2.50;;;;;;;36.50;38.50;99909.84;107947;1286;22010;-70
2023/08/31 07:52:40;;;;;;;8.70;2.30;;;;;;;36.67;38.39;99907.92;107893;1289;21995;-71
2023/08/31 07:55:06;;;;;;;10.80;2.90;;;;;;;36.82;38.27;99908.21;107860;1283;22003;-61
2023/08/31 07:57:32;;;;;;;9.90;2.70;;;;;;;37.06;38.33;99908.38;107894;1286;22124;-60
2023/08/31 07:59:57;;;;;;;8.40;2.60;;;;;;;37.48;39.01;99906.92;107965;1286;22000;-71
2023/08/31 08:02:23;;;;;;;8.50;2.30;;;;;;;37.97;38.40;99901.17;108032;1286;22002;-71
2023/08/31 08:04:48;;;;;;;8.50;2.30;;;;;;;38.36;37.94;99905.52;107949;1288;21980;-71
2023/08/31 08:07:14;;;;;;;9.20;2.20;;;;;;;38.64;36.79;99912.98;107943;1286;21996;-60
2023/08/31 08:09:40;;;;;;;7.90;3.10;;;;;;;38.73;36.45;99914.29;107985;1283;21988;-72
2023/08/31 08:12:06;;;;;;;11.10;2.80;;;;;;;38.79;36.24;99916.40;107986;1288;23625;-71
2023/08/31 08:14:32;;;;;;;8.40;2.60;;;;;;;38.85;36.15;99915.28;107975;1288;22053;-72
2023/08/31 08:16:58;;;;;;;6.80;2.20;;;;;;;39.03;36.12;99909.98;107981;1279;21992;-60
2023/08/31 08:19:24;;;;;;;9.50;2.60;;;;;;;39.19;35.49;99911.13;107976;1288;23067;-60
2023/08/31 08:21:50;;;;;;;7.90;2.50;;;;;;;39.29;35.70;99908.93;107968;1280;22011;-72
2023/08/31 08:24:16;;;;;;;8.50;2.50;;;;;;;39.38;35.60;99905.60;108067;1284;22099;-71
2023/08/31 08:26:42;;;;;;;10.20;2.60;;;;;;;39.51;35.40;99901.70;108024;1279;22033;-60
2023/08/31 08:29:07;;;;;;;6.20;2.40;;;;;;;39.62;34.43;99900.20;107969;1285;23729;-71
2023/08/31 08:31:33;;;;;;;8.60;2.60;;;;;;;39.55;34.00;99899.42;107973;1283;22003;-60
2023/08/31 08:34:00;;;;;;;14.00;2.90;;;;;;;39.48;34.10;99904.30;107961;1284;22002;-60
2023/08/31 08:36:25;;;;;;;7.80;2.60;;;;;;;39.38;33.30;99903.20;107982;1288;21995;-60
2023/08/31 08:38:51;;;;;;;18.10;3.30;;;;;;;39.27;33.60;99901.59;107961;1283;24417;-60
2023/08/31 08:41:19;;;;;;;8.00;2.90;;;;;;;39.31;34.14;99900.42;107973;1288;22005;-60
2023/08/31 08:43:44;;;;;;;10.20;3.00;;;;;;;39.29;33.43;99901.25;108075;1288;21994;-69
2023/08/31 08:46:10;;;;;;;5.10;2.20;;;;;;;39.19;33.55;99897.30;107910;1279;21991;-62
2023/08/31 08:48:36;;;;;;;10.70;2.50;;;;;;;39.36;33.89;99898.92;108082;1288;21985;-60
2023/08/31 08:51:04;;;;;;;8.20;2.40;;;;;;;39.63;34.26;99895.58;108104;1283;22046;-68
2023/08/31 08:53:30;;;;;;;7.20;3.00;;;;;;;40.00;34.09;99896.33;108144;1288;22386;-69
2023/08/31 08:55:56;;;;;;;7.10;2.60;;;;;;;40.34;33.74;99895.32;108113;1287;22154;-68
2023/08/31 08:58:22;;;;;;;7.70;2.30;;;;;;;40.64;33.49;99897.85;108144;1288;22012;-61
2023/08/31 09:00:47;;;;;;;7.60;2.70;;;;;;;40.73;32.73;99891.55;107977;1281;22107;-69
2023/08/31 09:03:13;;;;;;;8.20;2.80;;;;;;;40.70;32.30;99892.95;107892;1288;21989;-60
2023/08/31 09:05:39;;;;;;;4.80;2.50;;;;;;;40.69;31.97;99892.66;107655;1288;22000;-60
2023/08/31 09:08:15;;;;;;;9.10;3.00;;;;;;;40.52;31.32;99890.75;107789;1279;22018;-60
2023/08/31 09:10:42;;;;;;;10.30;2.90;;;;;;;40.41;32.09;99895.87;107975;1289;22012;-69
2023/08/31 09:13:09;;;;;;;6.20;2.70;;;;;;;40.44;32.65;99895.50;107997;1280;22225;-68
2023/08/31 09:15:44;;;;;;;7.00;2.80;;;;;;;40.71;32.72;99890.16;107930;1286;22004;-67
2023/08/31 09:18:15;;;;;;;8.00;2.80;;;;;;;41.17;32.62;99887.84;107896;1287;21989;-68
2023/08/31 09:20:46;;;;;;;9.50;2.50;;;;;;;41.42;31.37;99886.38;107909;1286;22013;-67
2023/08/31 09:23:12;;;;;;;6.20;2.60;;;;;;;41.40;31.53;99884.16;107927;1276;21990;-65
2023/08/31 09:25:45;;;;;;;7.50;2.70;;;;;;;41.39;31.60;99891.65;107939;1289;22052;-69
2023/08/31 09:28:13;;;;;;;6.40;2.70;;;;;;;41.30;30.86;99894.67;107913;1286;21993;-60
2023/08/31 09:30:40;;;;;;;6.40;2.60;;;;;;;41.13;30.52;99894.17;107986;1283;21997;-69
2023/08/31 09:33:23;;;;;;;6.00;2.70;;;;;;;40.97;30.63;99890.92;107875;1286;22017;-60
2023/08/31 09:35:51;;;;;;;6.50;2.80;;;;;;;40.87;30.81;99894.99;107973;1288;23739;-69
2023/08/31 09:38:17;;;;;;;9.00;3.00;;;;;;;40.84;29.98;99898.73;108050;1280;21998;-60
2023/08/31 09:40:42;;;;;;;7.20;2.70;;;;;;;40.68;29.71;99897.67;108035;1281;22021;-69
2023/08/31 09:43:08;;;;;;;5.70;2.60;;;;;;;40.74;30.57;99892.70;108002;1283;21979;-61
2023/08/31 09:45:34;;;;;;;11.80;3.00;;;;;;;40.78;30.11;99891.98;107882;1288;21990;-69
2023/08/31 09:48:01;;;;;;;7.00;2.80;;;;;;;40.71;29.51;99891.92;108060;1283;21992;-69
2023/08/31 09:50:33;;;;;;;;;;;;;;;40.61;29.16;99890.29;108046;1283;21969;-61
2023/08/31 09:53:03;;;;;;;7.60;2.90;;;;;;;40.53;29.64;99887.79;108070;1283;21992;-68
2023/08/31 09:55:30;;;;;;;6.50;2.70;;;;;;;40.53;29.91;99888.02;107979;1283;22033;-69
2023/08/31 09:57:57;;;;;;;5.70;3.10;;;;;;;40.44;29.61;99887.91;108074;1288;23640;-61
2023/08/31 10:00:27;;;;;;;6.20;2.50;;;;;;;40.28;29.91;99893.16;108002;1279;22031;-60
2023/08/31 10:02:54;;;;;;;7.50;3.00;;;;;;;40.15;29.53;99895.48;108009;1288;22010;-69
2023/08/31 10:05:19;;;;;;;7.40;2.80;;;;;;;39.88;29.41;99899.18;107956;1283;21998;-69
2023/08/31 10:07:45;;;;;;;15.50;3.10;;;;;;;39.70;29.92;99901.33;108002;1288;21993;-61
2023/08/31 10:10:11;;;;;;;4.90;2.50;;;;;;;39.72;30.36;99905.39;107959;1283;21996;-69
2023/08/31 10:12:37;;;;;;;7.70;2.70;;;;;;;39.88;30.38;99902.15;107753;1285;21987;-70
2023/08/31 10:15:03;;;;;;;7.40;2.60;;;;;;;40.06;30.59;99907.38;107982;1276;23759;-68
2023/08/31 10:17:28;;;;;;;6.20;2.90;;;;;;;40.24;30.27;99912.90;107851;1284;21985;-69
2023/08/31 10:19:55;;;;;;;9.80;3.10;;;;;;;40.34;30.39;99913.30;107969;1282;21998;-68
2023/08/31 10:22:21;;;;;;;9.50;3.30;;;;;;;40.41;30.68;99909.83;108007;1288;22002;-60
2023/08/31 10:25:03;;;;;;;6.20;2.50;;;;;;;40.69;29.82;99908.79;107985;1286;22020;-69
2023/08/31 10:27:39;;;;;;;6.90;2.20;;;;;;;40.96;30.00;99904.23;108005;1282;22063;-61
2023/08/31 10:30:27;;;;;;;7.90;2.60;;;;;;;41.37;29.77;99905.89;108025;1286;21990;-60
2023/08/31 10:33:08;;;;;;;8.30;2.90;;;;;;;41.72;28.88;99902.52;108082;1280;21996;-68
2023/08/31 10:35:55;;;;;;;6.30;2.40;;;;;;;41.82;28.32;99900.78;107942;1286;22015;-61
2023/08/31 10:38:28;;;;;;;7.00;2.50;;;;;;;41.89;28.46;99899.79;108003;1279;21991;-60
2023/08/31 10:41:06;;;;;;;5.20;2.30;;;;;;;42.02;28.09;99898.69;107968;1288;21998;-61
2023/08/31 10:43:51;;;;;;;9.00;3.10;;;;;;;42.07;27.61;99893.03;107961;1275;22002;-69
2023/08/31 10:46:29;;;;;;;6.30;2.80;;;;;;;41.88;27.88;99893.96;107991;1288;22108;-61
2023/08/31 10:48:57;;;;;;;4.40;2.30;;;;;;;41.74;27.66;99897.27;107968;1283;21985;-71
2023/08/31 10:51:24;;;;;;;6.30;2.30;;;;;;;41.68;27.61;99893.80;108065;1277;21987;-68
2023/08/31 10:53:50;;;;;;;8.40;3.00;;;;;;;41.81;27.84;99888.98;108064;1288;21996;-61
2023/08/31 10:56:17;;;;;;;3.80;2.40;;;;;;;42.01;27.87;99889.34;107974;1288;22027;-70
2023/08/31 10:58:44;;;;;;;6.70;2.50;;;;;;;42.07;27.47;99891.45;108033;1288;23644;-61
2023/08/31 11:01:10;;;;;;;6.10;2.60;;;;;;;42.13;27.14;99884.94;108087;1285;21993;-68
2023/08/31 11:03:58;;;;;;;5.20;2.50;;;;;;;42.27;27.41;99879.38;108067;1280;21995;-61
2023/08/31 11:06:28;;;;;;;7.50;2.70;;;;;;;42.41;27.16;99877.13;108045;1288;22002;-60
2023/08/31 11:08:54;;;;;;;6.00;2.30;;;;;;;42.51;27.23;99876.45;107992;1284;21999;-68
2023/08/31 11:11:20;;;;;;;7.80;2.80;;;;;;;42.71;26.99;99877.14;107985;1277;22081;-60
2023/08/31 11:13:45;;;;;;;6.50;2.80;;;;;;;42.82;26.84;99878.66;108027;1288;22016;-60
2023/08/31 11:16:11;;;;;;;5.30;2.40;;;;;;;42.75;26.80;99879.34;107949;1286;21982;-61
2023/08/31 11:18:37;;;;;;;7.10;2.70;;;;;;;42.71;27.03;99870.83;107743;1288;21998;-70
2023/08/31 11:21:05;;;;;;;6.40;2.60;;;;;;;42.77;26.58;99869.90;107784;1285;22000;-69
2023/08/31 11:23:31;;;;;;;8.50;2.50;;;;;;;42.86;26.64;99862.91;108003;1283;23643;-61